Time;durP1;ratioP1;P1;durP2;ratioP2;P2;SDS_P1;SDS_P2;PMS_P1;PMS_P2;Temp;Humidity;BMP_temperature;BMP_pressure;BME280_temperature;BME280_humidity;BME280_pressure;Samples;Min_cycle;Max_cycle;Signal;HPM_P1;HPM_P2
2023/05/04 00:01:10;;;;;;;7.22;4.53;;;6.20;99.90;;;;;;4878103;28;92758;-31
2023/05/04 00:03:36;;;;;;;10.43;4.95;;;6.10;99.90;;;;;;4879166;28;95937;-34
2023/05/04 00:06:02;;;;;;;7.80;4.97;;;6.10;99.90;;;;;;4878583;28;94991;-32
2023/05/04 00:08:28;;;;;;;10.63;5.10;;;6.10;99.90;;;;;;4878533;28;95243;-35
2023/05/04 00:10:54;;;;;;;8.60;5.15;;;6.00;99.90;;;;;;4878771;28;94037;-31
2023/05/04 00:13:20;;;;;;;6.45;4.35;;;5.90;99.90;;;;;;4878766;28;95137;-31
2023/05/04 00:15:46;;;;;;;6.35;5.43;;;5.90;99.90;;;;;;4878314;28;94261;-32
2023/05/04 00:18:12;;;;;;;9.65;5.25;;;5.90;99.90;;;;;;4879442;28;94136;-31
2023/05/04 00:20:37;;;;;;;7.55;4.32;;;6.00;99.90;;;;;;4878785;28;92360;-32
2023/05/04 00:23:03;;;;;;;11.05;5.57;;;6.00;99.90;;;;;;4879434;28;93997;-30
2023/05/04 00:25:29;;;;;;;6.15;4.38;;;6.00;99.90;;;;;;4878635;28;94636;-31
2023/05/04 00:27:54;;;;;;;6.15;3.75;;;5.80;99.90;;;;;;4877851;28;93805;-31
2023/05/04 00:30:20;;;;;;;10.68;5.25;;;5.90;99.90;;;;;;4878567;28;92214;-34
2023/05/04 00:32:46;;;;;;;6.07;4.63;;;5.80;99.90;;;;;;4878340;28;94885;-30
2023/05/04 00:35:11;;;;;;;8.82;4.75;;;5.80;99.90;;;;;;4879022;28;94495;-31
2023/05/04 00:37:37;;;;;;;14.70;6.55;;;5.80;99.90;;;;;;4879142;28;93116;-32
2023/05/04 00:40:03;;;;;;;12.88;5.93;;;5.70;99.90;;;;;;4878788;28;94237;-31
2023/05/04 00:42:29;;;;;;;6.70;5.60;;;5.70;99.90;;;;;;4878192;28;95546;-32
2023/05/04 00:44:55;;;;;;;12.52;6.25;;;5.70;99.90;;;;;;4878938;28;94217;-34
2023/05/04 00:47:21;;;;;;;8.23;4.82;;;5.70;99.90;;;;;;4878580;28;94463;-33
2023/05/04 00:49:47;;;;;;;6.97;5.07;;;5.60;99.90;;;;;;4878542;28;94395;-30
2023/05/04 00:52:13;;;;;;;13.73;4.78;;;5.60;99.90;;;;;;4877045;28;95684;-31
2023/05/04 00:54:41;;;;;;;6.90;5.53;;;5.50;99.90;;;;;;4879943;28;96602;-31
2023/05/04 00:57:07;;;;;;;12.57;5.82;;;5.50;99.90;;;;;;4879634;28;94891;-30
2023/05/04 00:59:33;;;;;;;7.60;5.72;;;5.60;99.90;;;;;;4882206;28;95086;-29
2023/05/04 01:01:59;;;;;;;7.20;5.10;;;5.50;99.90;;;;;;4881367;28;95053;-30
2023/05/04 01:04:25;;;;;;;6.70;5.53;;;5.70;99.90;;;;;;4881047;28;94498;-35
2023/05/04 01:07:05;;;;;;;10.43;5.70;;;5.70;99.90;;;;;;4881608;28;94347;-35
2023/05/04 01:09:42;;;;;;;6.45;3.83;;;5.70;99.90;;;;;;4882558;28;93071;-33
2023/05/04 01:12:24;;;;;;;7.38;5.63;;;5.60;99.90;;;;;;4870417;28;96157;-30
2023/05/04 01:14:52;;;;;;;9.93;5.63;;;5.60;99.90;;;;;;4880652;28;94172;-33
2023/05/04 01:17:19;;;;;;;7.93;5.43;;;5.60;99.90;;;;;;4881368;28;95446;-33
2023/05/04 01:19:44;;;;;;;11.45;6.43;;;5.50;99.90;;;;;;4881283;28;92171;-31
2023/05/04 01:22:10;;;;;;;7.13;5.22;;;5.50;99.90;;;;;;4881300;28;94794;-31
2023/05/04 01:24:36;;;;;;;9.85;5.65;;;5.50;99.90;;;;;;4881652;28;94234;-29
2023/05/04 01:27:07;;;;;;;11.82;7.07;;;5.50;99.90;;;;;;4880951;28;92259;-29
2023/05/04 01:29:51;;;;;;;11.27;5.82;;;5.40;99.90;;;;;;4880679;28;93089;-33
2023/05/04 01:32:18;;;;;;;10.90;5.38;;;5.50;99.90;;;;;;4880556;28;94654;-30
2023/05/04 01:34:44;;;;;;;10.85;4.45;;;5.40;99.90;;;;;;4882292;28;92622;-30
2023/05/04 01:37:10;;;;;;;14.30;6.50;;;5.50;99.90;;;;;;4881412;28;94445;-30
2023/05/04 01:39:35;;;;;;;10.25;5.70;;;5.50;99.90;;;;;;4881922;28;93454;-35
2023/05/04 01:42:01;;;;;;;8.00;5.03;;;5.40;99.90;;;;;;4879804;28;95597;-33
2023/05/04 01:44:27;;;;;;;7.18;4.70;;;5.50;99.90;;;;;;4880921;28;95472;-33
2023/05/04 01:46:52;;;;;;;11.10;6.70;;;5.50;99.90;;;;;;4881155;28;92920;-32
2023/05/04 01:49:18;;;;;;;9.25;4.97;;;5.50;99.90;;;;;;4880278;28;92122;-31
2023/05/04 01:51:45;;;;;;;10.68;6.28;;;5.40;99.90;;;;;;4880730;28;95160;-32
2023/05/04 01:54:11;;;;;;;6.88;5.75;;;5.50;99.90;;;;;;4881464;28;94690;-31
2023/05/04 01:56:37;;;;;;;15.02;7.00;;;5.50;99.90;;;;;;4880613;28;93507;-36
2023/05/04 01:59:02;;;;;;;12.13;7.28;;;5.50;99.90;;;;;;4881786;28;94225;-32
2023/05/04 02:01:28;;;;;;;9.18;5.97;;;5.60;99.90;;;;;;4880109;28;94708;-31
2023/05/04 02:03:54;;;;;;;11.75;5.90;;;5.50;99.90;;;;;;4868684;28;94711;-31
2023/05/04 02:06:19;;;;;;;8.07;5.18;;;5.50;99.90;;;;;;4878431;28;93879;-30
2023/05/04 02:08:45;;;;;;;9.00;5.85;;;5.40;99.90;;;;;;4880336;28;94565;-36
2023/05/04 02:11:13;;;;;;;13.23;6.35;;;5.50;99.90;;;;;;4879750;28;94767;-32
2023/05/04 02:13:39;;;;;;;9.23;6.18;;;5.40;99.90;;;;;;4880792;28;94729;-30
2023/05/04 02:16:05;;;;;;;7.40;5.22;;;5.50;99.90;;;;;;4880848;28;94261;-35
2023/05/04 02:18:31;;;;;;;25.27;5.35;;;5.60;99.90;;;;;;4881286;28;93156;-30
2023/05/04 02:20:56;;;;;;;8.65;5.90;;;5.60;99.90;;;;;;4879710;28;94495;-32
2023/05/04 02:23:22;;;;;;;17.80;6.50;;;5.50;99.90;;;;;;4880971;28;94539;-32
2023/05/04 02:25:47;;;;;;;12.10;5.78;;;5.40;99.90;;;;;;4880126;28;92601;-31
2023/05/04 02:28:13;;;;;;;8.68;5.53;;;5.40;99.90;;;;;;4880684;28;94231;-30
2023/05/04 02:30:40;;;;;;;10.25;6.28;;;5.40;99.90;;;;;;4879611;28;95995;-30
2023/05/04 02:33:06;;;;;;;12.30;8.18;;;5.50;99.90;;;;;;4879905;28;95717;-33
2023/05/04 02:35:31;;;;;;;14.48;5.85;;;5.50;99.90;;;;;;4880377;28;93243;-30
2023/05/04 02:37:57;;;;;;;6.97;5.65;;;5.50;99.90;;;;;;4880967;28;94355;-31
2023/05/04 02:40:23;;;;;;;9.57;6.30;;;5.40;99.90;;;;;;4879676;28;94821;-31
2023/05/04 02:42:48;;;;;;;9.93;6.65;;;5.50;99.90;;;;;;4880164;28;94377;-32
2023/05/04 02:45:14;;;;;;;10.93;6.45;;;5.50;99.90;;;;;;4879838;28;93387;-29
2023/05/04 02:47:40;;;;;;;11.75;6.32;;;5.40;99.90;;;;;;4880855;28;93986;-30
2023/05/04 02:50:06;;;;;;;10.45;6.70;;;5.50;99.90;;;;;;4879488;28;94884;-31
2023/05/04 02:52:31;;;;;;;10.43;6.78;;;5.40;99.90;;;;;;4880377;28;95389;-32
2023/05/04 02:54:58;;;;;;;9.73;6.22;;;5.50;99.90;;;;;;4879361;28;95142;-32
2023/05/04 02:57:24;;;;;;;10.68;5.68;;;5.50;99.90;;;;;;4880307;28;93262;-33
2023/05/04 02:59:50;;;;;;;12.70;7.18;;;5.40;99.90;;;;;;4878728;28;94629;-33
2023/05/04 03:02:15;;;;;;;10.55;6.47;;;5.40;99.90;;;;;;4878032;28;93822;-33
2023/05/04 03:04:41;;;;;;;14.70;7.60;;;5.40;99.90;;;;;;4880442;28;93302;-31
2023/05/04 03:07:08;;;;;;;12.50;7.80;;;5.50;99.90;;;;;;4878901;28;92912;-31
2023/05/04 03:09:34;;;;;;;10.52;6.30;;;5.40;99.90;;;;;;4878723;28;94861;-34
2023/05/04 03:12:00;;;;;;;9.35;7.72;;;5.40;99.90;;;;;;4880069;28;94299;-31
2023/05/04 03:14:26;;;;;;;12.30;6.43;;;5.40;99.90;;;;;;4879572;28;94244;-32
2023/05/04 03:16:51;;;;;;;7.90;6.82;;;5.40;99.90;;;;;;4879426;28;93255;-31
2023/05/04 03:19:17;;;;;;;14.15;7.28;;;5.40;99.90;;;;;;4878360;28;96623;-30
2023/05/04 03:21:45;;;;;;;16.27;8.20;;;5.40;99.90;;;;;;4878610;28;94199;-30
2023/05/04 03:24:11;;;;;;;10.40;6.43;;;5.40;99.90;;;;;;4879056;28;95819;-35
2023/05/04 03:26:36;;;;;;;7.97;5.63;;;5.40;99.90;;;;;;4879428;28;94261;-31
2023/05/04 03:29:02;;;;;;;6.55;5.80;;;5.40;99.90;;;;;;4878595;28;94871;-33
2023/05/04 03:31:27;;;;;;;20.75;7.72;;;5.40;99.90;;;;;;4879190;28;94353;-31
2023/05/04 03:33:53;;;;;;;11.25;6.18;;;5.40;99.90;;;;;;4878824;28;93610;-30
2023/05/04 03:36:19;;;;;;;9.45;6.10;;;5.40;99.90;;;;;;4879457;28;93997;-34
2023/05/04 03:38:45;;;;;;;8.57;5.93;;;5.40;99.90;;;;;;4878442;28;96249;-33
2023/05/04 03:41:11;;;;;;;13.57;7.25;;;5.40;99.90;;;;;;4878994;28;94888;-35
2023/05/04 03:43:37;;;;;;;8.65;5.30;;;5.40;99.90;;;;;;4878786;28;95863;-32
2023/05/04 03:46:03;;;;;;;13.20;6.53;;;5.40;99.90;;;;;;4878870;28;93252;-33
2023/05/04 03:48:29;;;;;;;8.93;5.50;;;5.40;99.90;;;;;;4878625;28;94882;-32
2023/05/04 03:50:54;;;;;;;16.45;8.77;;;5.40;99.90;;;;;;4879231;28;94537;-29
2023/05/04 03:53:20;;;;;;;13.02;6.75;;;5.40;99.90;;;;;;4879029;28;92359;-35
2023/05/04 03:55:45;;;;;;;11.57;5.68;;;5.40;99.90;;;;;;4879092;28;94704;-30
2023/05/04 03:58:11;;;;;;;12.52;6.20;;;5.40;99.90;;;;;;4876705;28;94713;-34
2023/05/04 04:00:37;;;;;;;12.02;7.13;;;5.40;99.90;;;;;;4879482;28;95473;-32
2023/05/04 04:03:02;;;;;;;12.35;7.60;;;5.40;99.90;;;;;;4878610;28;93395;-31
2023/05/04 04:05:28;;;;;;;10.90;7.68;;;5.40;99.90;;;;;;4878977;28;94991;-30
2023/05/04 04:07:53;;;;;;;11.18;7.07;;;5.40;99.90;;;;;;4911039;23;96124;-30
2023/05/04 04:10:19;;;;;;;10.98;7.45;;;5.40;99.90;;;;;;4894970;28;95459;-30
2023/05/04 04:12:46;;;;;;;14.82;7.20;;;5.50;99.90;;;;;;4895640;28;93987;-32
2023/05/04 04:15:11;;;;;;;9.60;6.05;;;5.40;99.90;;;;;;4895272;28;94323;-34
2023/05/04 04:17:37;;;;;;;12.65;7.60;;;5.50;99.90;;;;;;4895691;28;95500;-30
2023/05/04 04:20:03;;;;;;;16.67;7.18;;;5.50;99.90;;;;;;4895191;28;95158;-31
2023/05/04 04:22:28;;;;;;;7.80;5.55;;;5.50;99.90;;;;;;4895345;28;92684;-35
2023/05/04 04:24:55;;;;;;;14.50;7.22;;;5.50;99.90;;;;;;4896379;28;94215;-31
2023/05/04 04:27:20;;;;;;;15.88;8.00;;;5.50;99.90;;;;;;4894511;28;94308;-33
2023/05/04 04:29:46;;;;;;;16.88;6.80;;;5.50;99.90;;;;;;4899797;28;94780;-32
2023/05/04 04:32:12;;;;;;;12.57;6.53;;;5.50;99.90;;;;;;4901604;28;95785;-32
2023/05/04 04:34:37;;;;;;;11.10;6.03;;;5.60;99.90;;;;;;4896644;28;92952;-32
2023/05/04 04:37:03;;;;;;;9.65;6.97;;;5.50;99.90;;;;;;4898659;28;95976;-31
2023/05/04 04:39:29;;;;;;;15.07;7.25;;;5.60;99.90;;;;;;4915589;28;94519;-33
2023/05/04 04:41:54;;;;;;;9.25;5.55;;;5.60;99.90;;;;;;4901514;28;92194;-32
2023/05/04 04:44:20;;;;;;;10.25;6.43;;;5.60;99.90;;;;;;4901330;28;93743;-31
2023/05/04 04:46:46;;;;;;;15.00;7.18;;;5.60;99.90;;;;;;4901223;28;95020;-31
2023/05/04 04:49:11;;;;;;;15.80;7.97;;;5.60;99.90;;;;;;4902024;28;94521;-29
2023/05/04 04:51:39;;;;;;;13.32;7.57;;;5.70;99.90;;;;;;4900577;28;92509;-30
2023/05/04 04:54:05;;;;;;;10.05;7.55;;;5.70;99.90;;;;;;4902454;28;94023;-31
2023/05/04 04:56:31;;;;;;;10.15;7.32;;;5.70;99.90;;;;;;4900335;28;95768;-32
2023/05/04 04:58:56;;;;;;;14.13;7.40;;;5.70;99.90;;;;;;4901106;28;96235;-32
2023/05/04 05:01:23;;;;;;;18.27;8.57;;;5.80;99.90;;;;;;4876199;28;93896;-29
2023/05/04 05:03:49;;;;;;;12.25;8.88;;;5.80;99.90;;;;;;4876382;28;93050;-32
2023/05/04 05:06:14;;;;;;;10.55;7.95;;;5.80;99.90;;;;;;4903137;28;95332;-30
2023/05/04 05:08:42;;;;;;;13.38;7.28;;;5.80;99.90;;;;;;4878511;28;94917;-33
2023/05/04 05:11:09;;;;;;;13.88;7.28;;;5.90;99.90;;;;;;4864728;28;94348;-31
2023/05/04 05:13:35;;;;;;;12.40;7.43;;;5.90;99.90;;;;;;4879571;28;91519;-32
2023/05/04 05:16:00;;;;;;;15.63;8.50;;;5.90;99.90;;;;;;4902427;28;94599;-32
2023/05/04 05:18:28;;;;;;;16.75;7.28;;;6.00;99.90;;;;;;4903163;28;95003;-33
2023/05/04 05:20:54;;;;;;;12.23;7.40;;;6.00;99.90;;;;;;4875983;28;94304;-30
2023/05/04 05:23:19;;;;;;;12.98;6.68;;;6.10;99.90;;;;;;4882616;28;94388;-33
2023/05/04 05:25:45;;;;;;;11.50;7.40;;;6.10;99.90;;;;;;4873240;28;95493;-33
2023/05/04 05:28:12;;;;;;;9.93;6.22;;;6.20;99.90;;;;;;4886856;28;94636;-30
2023/05/04 05:30:38;;;;;;;19.02;8.98;;;6.20;99.90;;;;;;4882717;28;94841;-35
2023/05/04 05:33:04;;;;;;;12.27;8.57;;;6.30;99.90;;;;;;4874153;28;93216;-30
2023/05/04 05:35:30;;;;;;;16.50;8.25;;;6.30;99.90;;;;;;4869499;28;94695;-29
2023/05/04 05:37:55;;;;;;;14.90;8.05;;;6.40;99.90;;;;;;4876472;28;94554;-32
2023/05/04 05:40:21;;;;;;;10.05;7.38;;;6.50;99.90;;;;;;4876423;28;92480;-30
2023/05/04 05:42:47;;;;;;;18.55;9.23;;;6.50;99.90;;;;;;4873451;28;94647;-33
2023/05/04 05:45:13;;;;;;;16.15;8.95;;;6.60;99.90;;;;;;4874177;28;96041;-33
2023/05/04 05:47:39;;;;;;;12.73;8.48;;;6.60;99.90;;;;;;4867460;28;97578;-31
2023/05/04 05:50:06;;;;;;;11.40;8.82;;;6.70;99.90;;;;;;4875024;28;93612;-32
2023/05/04 05:52:32;;;;;;;19.45;9.82;;;6.80;99.90;;;;;;4876610;28;92494;-30
2023/05/04 05:54:57;;;;;;;8.98;7.43;;;6.80;99.90;;;;;;4878797;28;94839;-29
2023/05/04 05:57:23;;;;;;;12.65;7.65;;;6.90;99.90;;;;;;4870763;28;94405;-35
2023/05/04 05:59:49;;;;;;;25.48;8.50;;;6.90;99.90;;;;;;4878900;28;92202;-30
2023/05/04 06:02:15;;;;;;;9.77;8.18;;;7.00;99.90;;;;;;4878145;28;93309;-30
2023/05/04 06:04:46;;;;;;;23.40;9.40;;;7.00;99.90;;;;;;4867056;28;95186;-34
2023/05/04 06:07:12;;;;;;;12.25;8.57;;;7.10;99.90;;;;;;4859224;28;94921;-35
2023/05/04 06:09:38;;;;;;;16.20;8.60;;;7.10;99.90;;;;;;4873161;28;93187;-30
2023/05/04 06:12:05;;;;;;;9.57;7.10;;;7.20;99.90;;;;;;4886496;28;94059;-29
2023/05/04 06:14:32;;;;;;;17.27;7.23;;;7.30;99.90;;;;;;4870011;28;94950;-32
2023/05/04 06:16:57;;;;;;;18.52;8.75;;;7.30;99.90;;;;;;4860155;28;94431;-32
2023/05/04 06:19:24;;;;;;;14.23;8.50;;;7.50;99.90;;;;;;4887394;28;93552;-29
2023/05/04 06:21:49;;;;;;;18.00;7.10;;;7.60;99.90;;;;;;4871810;28;92752;-30
2023/05/04 06:24:15;;;;;;;12.25;7.82;;;7.60;99.90;;;;;;4872417;28;95866;-33
2023/05/04 06:26:41;;;;;;;9.85;7.45;;;7.70;99.90;;;;;;4876327;28;94606;-30
2023/05/04 06:29:06;;;;;;;8.45;7.43;;;7.80;99.90;;;;;;4873906;28;93568;-31
2023/05/04 06:31:32;;;;;;;12.23;9.43;;;7.80;99.90;;;;;;4882957;28;94662;-32
2023/05/04 06:33:58;;;;;;;12.60;6.13;;;7.90;99.90;;;;;;4867743;28;95943;-29
2023/05/04 06:36:25;;;;;;;18.80;10.05;;;7.90;99.90;;;;;;4874581;28;96230;-30
2023/05/04 06:38:51;;;;;;;15.93;8.93;;;8.00;99.90;;;;;;4881853;28;93682;-33
2023/05/04 06:41:16;;;;;;;12.02;6.72;;;8.10;99.90;;;;;;4876757;28;93164;-31
2023/05/04 06:43:42;;;;;;;18.33;9.18;;;8.20;99.90;;;;;;4882805;28;92701;-31
2023/05/04 06:46:08;;;;;;;30.98;8.90;;;8.30;99.90;;;;;;4874164;28;94282;-31
2023/05/04 06:48:33;;;;;;;12.60;9.20;;;8.30;99.90;;;;;;4861960;28;92671;-32
2023/05/04 06:50:59;;;;;;;15.05;9.65;;;8.40;99.90;;;;;;4868815;28;91666;-31
2023/05/04 06:53:25;;;;;;;16.23;8.70;;;8.50;99.90;;;;;;4885061;28;96155;-32
2023/05/04 06:55:50;;;;;;;14.90;9.05;;;8.60;99.90;;;;;;4891903;28;94943;-30
2023/05/04 06:58:18;;;;;;;15.73;8.13;;;8.80;99.90;;;;;;4887523;28;93596;-34
2023/05/04 07:00:44;;;;;;;12.27;9.43;;;8.90;99.90;;;;;;4892760;28;93274;-32
2023/05/04 07:03:10;;;;;;;9.48;8.00;;;9.00;99.90;;;;;;4878532;28;94768;-32
2023/05/04 07:05:36;;;;;;;11.07;7.60;;;9.10;99.90;;;;;;4897596;28;93866;-35
2023/05/04 07:08:02;;;;;;;13.80;9.00;;;9.10;99.90;;;;;;4896206;28;93998;-31
2023/05/04 07:10:28;;;;;;;13.13;9.02;;;9.40;99.90;;;;;;4888769;28;93657;-33
2023/05/04 07:12:54;;;;;;;12.18;7.38;;;9.50;99.90;;;;;;4878743;28;96654;-31
2023/05/04 07:15:20;;;;;;;14.00;8.05;;;9.50;99.90;;;;;;4877761;28;94416;-32
2023/05/04 07:17:46;;;;;;;13.15;7.18;;;9.50;99.90;;;;;;4868210;28;94174;-33
2023/05/04 07:20:14;;;;;;;12.38;6.60;;;9.70;99.90;;;;;;4896428;28;94582;-33
2023/05/04 07:22:40;;;;;;;12.85;8.95;;;9.70;99.90;;;;;;4893755;28;95089;-30
2023/05/04 07:25:06;;;;;;;11.20;8.10;;;9.90;99.90;;;;;;4883767;28;95306;-32
2023/05/04 07:27:33;;;;;;;10.05;6.82;;;10.00;99.90;;;;;;4876766;28;93840;-33
2023/05/04 07:30:00;;;;;;;10.07;7.50;;;10.10;99.90;;;;;;4879096;28;93120;-31
2023/05/04 07:32:26;;;;;;;11.02;7.30;;;10.20;99.90;;;;;;4876593;28;95256;-34
2023/05/04 07:34:51;;;;;;;16.55;8.95;;;10.40;99.90;;;;;;4878314;28;94736;-31
2023/05/04 07:37:17;;;;;;;13.10;9.00;;;10.50;99.90;;;;;;4874546;28;93004;-30
2023/05/04 07:39:43;;;;;;;13.13;8.30;;;10.50;99.90;;;;;;4861048;28;92052;-32
2023/05/04 07:42:10;;;;;;;12.90;8.85;;;10.60;99.90;;;;;;4877612;28;94475;-31
2023/05/04 07:44:36;;;;;;;15.88;8.02;;;10.70;99.90;;;;;;4895960;28;94352;-32
2023/05/04 07:47:01;;;;;;;11.07;7.55;;;10.80;99.90;;;;;;4868924;28;93091;-32
2023/05/04 07:49:27;;;;;;;9.20;8.27;;;10.90;99.90;;;;;;4863391;28;94548;-30
2023/05/04 07:51:53;;;;;;;12.55;7.78;;;11.00;99.90;;;;;;4867655;28;96231;-29
2023/05/04 07:54:18;;;;;;;13.07;9.15;;;11.10;99.90;;;;;;4863071;28;94643;-29
2023/05/04 07:56:45;;;;;;;14.32;9.18;;;11.10;99.90;;;;;;4869910;28;92942;-33
2023/05/04 07:59:10;;;;;;;13.75;9.20;;;11.20;99.90;;;;;;4869811;28;93676;-30
2023/05/04 08:01:36;;;;;;;10.38;8.10;;;11.30;99.90;;;;;;4875041;28;94983;-33
2023/05/04 08:04:02;;;;;;;13.63;7.03;;;11.50;99.90;;;;;;4878164;28;95137;-34
2023/05/04 08:06:27;;;;;;;10.40;7.13;;;11.70;99.90;;;;;;4879404;28;94534;-34
2023/05/04 08:08:53;;;;;;;13.18;9.38;;;11.80;99.90;;;;;;4880072;28;93266;-31
2023/05/04 08:11:19;;;;;;;11.77;8.02;;;11.90;99.90;;;;;;4878361;28;97762;-32
2023/05/04 08:13:48;;;;;;;7.18;6.30;;;12.10;99.90;;;;;;4876807;28;95116;-31
2023/05/04 08:16:14;;;;;;;11.07;7.60;;;12.10;99.90;;;;;;4879514;28;94908;-32
2023/05/04 08:18:39;;;;;;;14.82;7.72;;;12.10;99.90;;;;;;4878475;28;93019;-30
2023/05/04 08:21:05;;;;;;;11.25;7.88;;;12.20;99.90;;;;;;4877192;28;94214;-32
2023/05/04 08:23:32;;;;;;;10.40;8.50;;;12.30;99.90;;;;;;4877816;28;95351;-30
2023/05/04 08:26:00;;;;;;;14.50;7.63;;;12.60;99.90;;;;;;4877855;28;92327;-30
2023/05/04 08:28:26;;;;;;;9.68;7.55;;;12.80;99.90;;;;;;4876826;28;93974;-32
2023/05/04 08:30:52;;;;;;;10.02;7.40;;;12.80;99.90;;;;;;4877683;28;94508;-35
2023/05/04 08:33:17;;;;;;;13.98;7.28;;;12.90;99.90;;;;;;4876629;28;94887;-32
2023/05/04 08:35:43;;;;;;;11.13;8.52;;;13.00;99.90;;;;;;4877691;28;94887;-34
2023/05/04 08:38:09;;;;;;;8.95;7.25;;;13.20;99.90;;;;;;4877380;28;93414;-33
2023/05/04 08:40:34;;;;;;;13.38;6.72;;;13.20;99.90;;;;;;4877633;28;94847;-30
2023/05/04 08:43:01;;;;;;;9.75;7.25;;;13.20;99.90;;;;;;4877200;28;95411;-31
2023/05/04 08:45:27;;;;;;;8.50;7.03;;;13.20;99.90;;;;;;4876476;28;94366;-30
2023/05/04 08:47:53;;;;;;;8.15;6.78;;;13.10;98.50;;;;;;4876553;28;92798;-32
2023/05/04 08:50:19;;;;;;;9.98;6.72;;;13.30;99.90;;;;;;4877740;28;95221;-34
2023/05/04 08:52:46;;;;;;;7.88;6.28;;;13.40;99.90;;;;;;4877411;28;94425;-32
2023/05/04 08:55:12;;;;;;;10.23;7.60;;;13.60;92.90;;;;;;4878181;28;93122;-31
2023/05/04 08:57:41;;;;;;;12.05;6.55;;;13.60;99.90;;;;;;4878071;28;94232;-30
2023/05/04 09:00:11;;;;;;;8.00;6.60;;;13.80;96.50;;;;;;4879079;28;96311;-29
2023/05/04 09:02:37;;;;;;;8.40;7.53;;;13.70;95.80;;;;;;4885802;28;95878;-30
2023/05/04 09:05:06;;;;;;;12.00;7.25;;;13.90;96.20;;;;;;4885581;28;93878;-32
2023/05/04 09:07:32;;;;;;;9.13;6.70;;;13.90;84.00;;;;;;4857150;28;94429;-31
2023/05/04 09:09:58;;;;;;;9.80;7.43;;;14.00;86.50;;;;;;4857968;28;94771;-31
2023/05/04 09:12:25;;;;;;;9.75;8.48;;;14.10;89.00;;;;;;4857031;28;94447;-34
2023/05/04 09:14:51;;;;;;;9.83;7.80;;;14.30;90.30;;;;;;4859022;28;92456;-32
2023/05/04 09:17:28;;;;;;;8.40;7.00;;;14.50;89.00;;;;;;4861669;28;92552;-32
2023/05/04 09:20:00;;;;;;;11.60;7.43;;;14.50;80.80;;;;;;4897334;28;94900;-31
2023/05/04 09:22:28;;;;;;;11.32;7.07;;;14.50;81.70;;;;;;4884760;28;94501;-32
2023/05/04 09:25:04;;;;;;;12.70;7.37;;;14.60;86.80;;;;;;4861196;28;94453;-33
2023/05/04 09:27:30;;;;;;;9.13;7.72;;;14.60;80.80;;;;;;4860211;28;92914;-33
2023/05/04 09:29:55;;;;;;;9.05;7.07;;;14.70;82.10;;;;;;4860774;28;95041;-30
2023/05/04 09:32:21;;;;;;;10.23;6.45;;;14.70;79.60;;;;;;4860094;28;94559;-32
2023/05/04 09:34:50;;;;;;;7.47;6.80;;;14.80;80.20;;;;;;4877383;28;92574;-30
2023/05/04 09:37:19;;;;;;;10.40;7.82;;;15.00;79.30;;;;;;4867589;28;95591;-31
2023/05/04 09:39:56;;;;;;;7.05;6.45;;;15.10;76.50;;;;;;4870888;28;94659;-33
2023/05/04 09:42:23;;;;;;;8.60;6.50;;;15.30;78.10;;;;;;4862885;28;94568;-31
2023/05/04 09:45:06;;;;;;;8.57;7.03;;;15.50;77.00;;;;;;4861456;28;93452;-32
2023/05/04 09:47:36;;;;;;;11.27;7.65;;;15.70;76.80;;;;;;4861655;28;93338;-31
2023/05/04 09:50:21;;;;;;;10.40;7.78;;;15.80;77.10;;;;;;4862113;28;95589;-31
2023/05/04 09:52:47;;;;;;;9.13;6.38;;;16.00;80.70;;;;;;4871789;28;94819;-33
2023/05/04 09:55:14;;;;;;;12.88;7.28;;;15.90;75.10;;;;;;4863109;28;94079;-34
2023/05/04 09:57:41;;;;;;;9.18;7.25;;;15.90;78.00;;;;;;4862023;28;94687;-31
2023/05/04 10:00:12;;;;;;;16.35;9.38;;;15.70;72.90;;;;;;4868899;28;94745;-30
2023/05/04 10:02:39;;;;;;;10.68;7.88;;;15.80;76.30;;;;;;4876724;28;93771;-32
2023/05/04 10:05:09;;;;;;;8.18;7.35;;;15.80;77.20;;;;;;4897145;28;93094;-32
2023/05/04 10:07:35;;;;;;;13.90;8.18;;;15.90;73.70;;;;;;4897609;28;93341;-32
2023/05/04 10:10:01;;;;;;;8.35;6.40;;;16.00;73.40;;;;;;4894554;28;95461;-32
2023/05/04 10:12:26;;;;;;;14.75;7.90;;;16.00;71.20;;;;;;4896052;28;94469;-33
2023/05/04 10:14:52;;;;;;;9.10;7.75;;;16.10;74.40;;;;;;4894208;28;94879;-33
2023/05/04 10:17:46;;;;;;;10.93;7.85;;;16.20;73.80;;;;;;4896641;28;94428;-30
2023/05/04 10:20:40;;;;;;;9.95;7.13;;;16.40;74.50;;;;;;4880842;28;95289;-30
2023/05/04 10:23:36;;;;;;;15.52;8.68;;;16.30;71.90;;;;;;4890015;28;94137;-34
2023/05/04 10:26:22;;;;;;;14.05;8.27;;;16.40;74.40;;;;;;4881579;28;93017;-30
2023/05/04 10:28:58;;;;;;;9.57;8.50;;;16.50;71.70;;;;;;4897466;28;93508;-33
2023/05/04 10:31:24;;;;;;;11.23;7.68;;;16.60;74.20;;;;;;4881062;28;94981;-31
2023/05/04 10:33:50;;;;;;;14.73;6.40;;;16.60;74.50;;;;;;4885313;28;94581;-33
2023/05/04 10:36:15;;;;;;;10.85;8.98;;;16.70;74.00;;;;;;4895344;28;93992;-31
2023/05/04 10:38:41;;;;;;;10.25;7.75;;;16.50;71.10;;;;;;4890739;28;93355;-32
2023/05/04 10:41:17;;;;;;;9.52;6.78;;;16.50;72.60;;;;;;4884211;28;95746;-33
2023/05/04 10:43:47;;;;;;;8.75;7.47;;;16.70;72.20;;;;;;4887945;28;97166;-32
2023/05/04 10:46:23;;;;;;;10.32;8.35;;;16.70;69.60;;;;;;4885393;28;93060;-32
2023/05/04 10:48:49;;;;;;;10.02;7.53;;;16.60;70.60;;;;;;4890809;28;93823;-33
2023/05/04 10:51:22;;;;;;;9.40;7.65;;;16.50;70.20;;;;;;4893240;28;94460;-33
2023/05/04 10:53:49;;;;;;;9.75;7.60;;;16.60;72.60;;;;;;4892816;28;94198;-33
2023/05/04 10:56:25;;;;;;;9.73;7.35;;;16.70;69.50;;;;;;4892952;28;92935;-32
2023/05/04 10:58:52;;;;;;;14.07;8.13;;;16.90;71.40;;;;;;4873351;28;93709;-34
2023/05/04 11:01:19;;;;;;;10.02;7.10;;;17.00;73.20;;;;;;4889131;28;94625;-32
2023/05/04 11:03:45;;;;;;;6.38;5.88;;;17.00;67.80;;;;;;4871551;28;95125;-32
2023/05/04 11:06:26;;;;;;;7.78;5.53;;;17.10;68.60;;;;;;4858706;28;95714;-34
2023/05/04 11:09:00;;;;;;;8.50;6.60;;;17.10;67.00;;;;;;4866537;28;93879;-31
2023/05/04 11:11:26;;;;;;;7.72;6.93;;;17.10;65.80;;;;;;4892486;28;94134;-32
2023/05/04 11:13:52;;;;;;;19.17;7.68;;;17.20;70.80;;;;;;4897221;28;94498;-33
2023/05/04 11:16:27;;;;;;;13.15;7.30;;;17.30;68.30;;;;;;4895890;28;92889;-33
2023/05/04 11:18:53;;;;;;;7.00;6.28;;;17.40;68.90;;;;;;4897304;28;93126;-32
2023/05/04 11:21:24;;;;;;;7.45;5.43;;;17.40;65.70;;;;;;4890561;28;94760;-29
2023/05/04 11:23:57;;;;;;;6.47;5.03;;;17.30;64.20;;;;;;4888666;28;94614;-35
2023/05/04 11:26:24;;;;;;;5.47;5.03;;;17.30;64.90;;;;;;4892975;28;93049;-30
2023/05/04 11:28:50;;;;;;;6.63;6.03;;;17.40;65.20;;;;;;4894688;28;93118;-30
2023/05/04 11:31:17;;;;;;;8.88;5.75;;;17.30;64.10;;;;;;4893332;28;96077;-32
2023/05/04 11:33:51;;;;;;;7.38;6.60;;;17.40;66.40;;;;;;4893554;28;96372;-32
2023/05/04 11:36:17;;;;;;;7.18;6.47;;;17.50;64.60;;;;;;4864850;28;93069;-33
2023/05/04 11:38:43;;;;;;;8.63;5.55;;;17.60;65.00;;;;;;4877916;28;94186;-32
2023/05/04 11:41:10;;;;;;;8.30;5.95;;;17.50;63.80;;;;;;4891790;28;94735;-34
2023/05/04 11:43:38;;;;;;;12.68;6.53;;;17.60;65.00;;;;;;4866828;28;95011;-34
2023/05/04 11:46:05;;;;;;;12.53;6.17;;;17.60;65.30;;;;;;4868510;28;92856;-31
2023/05/04 11:48:32;;;;;;;7.18;5.53;;;17.80;64.90;;;;;;4866689;28;93053;-33
2023/05/04 11:50:58;;;;;;;10.38;7.25;;;17.80;64.20;;;;;;4871130;28;95028;-31
2023/05/04 11:53:23;;;;;;;9.20;5.80;;;17.90;64.00;;;;;;4871909;28;94950;-33
2023/05/04 11:55:52;;;;;;;12.95;5.93;;;17.90;62.30;;;;;;4864970;28;95479;-35
2023/05/04 11:58:23;;;;;;;11.68;6.50;;;18.00;64.10;;;;;;4866740;28;93856;-34
2023/05/04 12:00:56;;;;;;;11.02;7.63;;;17.90;62.70;;;;;;4860696;28;94406;-31
2023/05/04 12:03:25;;;;;;;9.10;6.72;;;17.90;64.60;;;;;;4879859;28;94116;-32
2023/05/04 12:05:53;;;;;;;7.55;6.53;;;17.90;62.90;;;;;;4895906;28;93970;-35
2023/05/04 12:08:33;;;;;;;7.65;6.40;;;18.00;63.20;;;;;;4894685;28;94493;-32
2023/05/04 12:11:23;;;;;;;9.32;6.38;;;18.00;64.30;;;;;;4895363;28;94373;-34
2023/05/04 12:14:00;;;;;;;8.40;6.10;;;18.00;63.50;;;;;;4874733;28;94251;-34
2023/05/04 12:16:25;;;;;;;12.02;7.32;;;18.20;66.20;;;;;;4888548;28;94337;-33
2023/05/04 12:19:03;;;;;;;10.52;6.35;;;18.20;66.60;;;;;;4878453;28;92781;-33
2023/05/04 12:21:30;;;;;;;8.68;6.43;;;18.30;65.60;;;;;;4893413;28;97272;-32
2023/05/04 12:23:59;;;;;;;6.55;5.90;;;18.20;64.20;;;;;;4894400;28;96888;-31
2023/05/04 12:26:25;;;;;;;9.07;6.70;;;18.20;63.80;;;;;;4893319;28;95098;-35
2023/05/04 12:28:51;;;;;;;9.98;7.95;;;18.30;63.40;;;;;;4882170;28;93397;-33
2023/05/04 12:31:17;;;;;;;10.00;7.13;;;18.10;61.70;;;;;;4893786;28;94588;-31
2023/05/04 12:33:42;;;;;;;7.65;6.78;;;18.30;63.10;;;;;;4893433;28;93388;-32
2023/05/04 12:36:09;;;;;;;7.85;6.95;;;18.20;64.30;;;;;;4883256;28;92987;-33
2023/05/04 12:38:34;;;;;;;7.25;6.63;;;18.30;65.40;;;;;;4882371;28;91548;-33
2023/05/04 12:41:03;;;;;;;7.30;6.55;;;18.40;62.80;;;;;;4894612;28;95144;-32
2023/05/04 12:43:30;;;;;;;8.50;7.28;;;18.30;65.30;;;;;;4878528;28;94676;-33
2023/05/04 12:45:55;;;;;;;11.77;7.55;;;18.40;64.90;;;;;;4875013;28;93778;-31